createdAt,value
2022-08-31T00:03:24.137Z,2.17
2022-08-31T00:08:44.854Z,1.77
2022-08-31T00:14:09.881Z,2.20
2022-08-31T00:19:33.856Z,1.80
2022-08-31T00:24:54.755Z,1.60
2022-08-31T00:30:15.966Z,2.28
2022-08-31T00:35:41.542Z,2.08
2022-08-31T00:41:02.592Z,2.20
2022-08-31T00:46:27.061Z,1.80
2022-08-31T00:51:52.302Z,2.22
2022-08-31T00:57:14.266Z,1.70
2022-08-31T01:02:35.594Z,2.13
2022-08-31T01:07:57.312Z,2.58
2022-08-31T01:13:18.516Z,2.90
2022-08-31T01:18:41.350Z,2.92
2022-08-31T01:24:03.697Z,3.00
2022-08-31T01:29:26.493Z,2.58
2022-08-31T01:34:47.750Z,2.63
2022-08-31T01:40:09.330Z,2.17
2022-08-31T01:45:30.421Z,2.13
2022-08-31T01:50:54.374Z,2.47
2022-08-31T01:56:37.354Z,2.60
2022-08-31T02:01:59.497Z,2.40
2022-08-31T02:07:21.250Z,2.50
2022-08-31T02:12:42.145Z,2.50
2022-08-31T02:18:02.807Z,2.50
2022-08-31T02:23:23.993Z,2.78
2022-08-31T02:28:44.634Z,2.47
2022-08-31T02:34:05.335Z,2.80
2022-08-31T02:39:26.466Z,2.72
2022-08-31T02:44:48.890Z,2.35
2022-08-31T02:50:10.176Z,2.90
2022-08-31T02:55:30.983Z,2.95
2022-08-31T03:00:52.430Z,2.70
2022-08-31T03:06:13.512Z,2.55
2022-08-31T03:11:34.485Z,2.33
2022-08-31T03:16:55.405Z,2.38
2022-08-31T03:22:16.059Z,2.50
2022-08-31T03:27:38.634Z,2.75
2022-08-31T03:33:02.874Z,2.70
2022-08-31T03:38:25.730Z,2.53
2022-08-31T03:43:46.404Z,2.35
2022-08-31T03:49:07.748Z,2.35
2022-08-31T03:54:29.172Z,2.65
2022-08-31T03:59:54.335Z,2.60
2022-08-31T04:05:15.185Z,2.83
2022-08-31T04:10:54.360Z,2.50
2022-08-31T04:16:28.062Z,2.30
2022-08-31T04:22:09.154Z,2.50
2022-08-31T04:27:41.402Z,2.70
2022-08-31T04:33:02.561Z,2.78
2022-08-31T04:38:23.479Z,3.00
2022-08-31T04:43:50.138Z,3.20
2022-08-31T04:49:14.669Z,3.25
2022-08-31T04:54:35.465Z,3.42
2022-08-31T04:59:56.048Z,2.97
2022-08-31T05:05:40.069Z,3.03
2022-08-31T05:11:09.295Z,3.17
2022-08-31T05:16:31.024Z,2.55
2022-08-31T05:21:52.096Z,2.78
2022-08-31T05:27:15.227Z,2.72
2022-08-31T05:32:36.052Z,2.75
2022-08-31T05:37:59.399Z,2.83
2022-08-31T05:43:21.316Z,2.85
2022-08-31T05:48:43.269Z,2.47
2022-08-31T05:54:14.846Z,2.95
2022-08-31T05:59:38.207Z,3.00
2022-08-31T06:05:00.258Z,2.67
2022-08-31T06:10:21.368Z,2.80
2022-08-31T06:15:44.061Z,2.72
2022-08-31T06:21:09.130Z,3.08
2022-08-31T06:26:33.874Z,2.60
2022-08-31T06:31:55.652Z,3.50
2022-08-31T06:37:19.193Z,4.60
2022-08-31T06:43:09.502Z,3.17
2022-08-31T06:48:53.491Z,2.70
2022-08-31T06:54:29.154Z,2.95
2022-08-31T07:00:10.926Z,2.50
2022-08-31T07:05:54.848Z,2.15
2022-08-31T07:11:25.767Z,2.17
2022-08-31T07:16:46.772Z,2.80
2022-08-31T07:22:09.524Z,2.53
2022-08-31T07:27:40.588Z,2.60
2022-08-31T07:33:06.284Z,2.83
2022-08-31T07:38:48.323Z,2.60
2022-08-31T07:49:32.561Z,2.20
2022-08-31T07:55:07.968Z,2.45
2022-08-31T08:00:43.640Z,2.42
2022-08-31T08:06:08.738Z,2.47
2022-08-31T08:11:44.570Z,1.98
2022-08-31T08:17:28.657Z,2.17
2022-08-31T08:22:59.624Z,2.40
2022-08-31T08:28:40.258Z,2.60
2022-08-31T08:34:03.624Z,3.03
2022-08-31T08:39:25.394Z,2.47
2022-08-31T08:45:10.322Z,2.75
2022-08-31T08:50:31.230Z,2.47
2022-08-31T08:55:52.494Z,2.60
2022-08-31T09:01:27.836Z,2.60
2022-08-31T09:07:05.680Z,2.92
2022-08-31T09:12:38.492Z,3.38
2022-08-31T09:18:26.449Z,4.10
2022-08-31T09:24:02.078Z,3.00
2022-08-31T09:29:31.995Z,2.50
2022-08-31T09:35:20.739Z,2.47
2022-08-31T09:40:53.117Z,2.70
2022-08-31T09:46:35.179Z,3.28
2022-08-31T09:52:21.437Z,2.63
2022-08-31T09:58:11.568Z,3.30
2022-08-31T10:03:32.462Z,3.58
2022-08-31T10:09:00.199Z,3.53
2022-08-31T10:14:36.243Z,3.10
2022-08-31T10:20:06.527Z,2.13
2022-08-31T10:25:40.899Z,3.05
2022-08-31T10:31:21.414Z,2.50
2022-08-31T10:36:44.769Z,2.42
2022-08-31T10:42:14.545Z,2.65
2022-08-31T10:47:43.230Z,1.70
2022-08-31T10:53:53.530Z,1.80
2022-08-31T10:59:47.969Z,1.60
2022-08-31T11:05:33.294Z,2.20
2022-08-31T11:10:56.222Z,2.30
2022-08-31T11:16:17.729Z,1.55
2022-08-31T11:22:02.985Z,1.60
2022-08-31T11:27:28.432Z,2.00
2022-08-31T11:33:00.429Z,1.52
2022-08-31T11:38:48.865Z,1.95
2022-08-31T11:44:30.536Z,1.58
2022-08-31T11:49:55.894Z,1.80
2022-08-31T11:55:21.308Z,2.08
2022-08-31T12:01:00.134Z,1.60
2022-08-31T12:06:33.880Z,1.80
2022-08-31T12:12:17.327Z,1.70
2022-08-31T12:18:05.084Z,2.00
2022-08-31T12:23:53.698Z,1.70
2022-08-31T12:29:35.463Z,2.10
2022-08-31T12:34:56.103Z,1.73
2022-08-31T12:40:25.175Z,2.10
2022-08-31T12:46:03.178Z,2.15
2022-08-31T12:51:59.034Z,2.70
2022-08-31T12:57:27.119Z,1.95
2022-08-31T13:02:51.844Z,1.70
2022-08-31T13:08:21.583Z,1.70
2022-08-31T13:13:42.397Z,1.33
2022-08-31T13:19:05.866Z,1.30
2022-08-31T13:24:33.307Z,1.80
2022-08-31T13:29:57.234Z,1.30
2022-08-31T13:35:25.543Z,1.40
2022-08-31T13:40:51.360Z,1.20
2022-08-31T13:46:12.750Z,1.17
2022-08-31T13:51:39.597Z,1.30
2022-08-31T13:57:22.802Z,1.30
2022-08-31T14:02:44.902Z,1.15
2022-08-31T14:08:09.451Z,0.90
2022-08-31T14:13:35.416Z,1.08
2022-08-31T14:18:56.565Z,1.13
2022-08-31T14:24:17.241Z,1.23
2022-08-31T14:29:42.084Z,1.17
2022-08-31T14:35:11.226Z,1.30
2022-08-31T14:40:34.843Z,1.30
2022-08-31T14:45:55.525Z,1.45
2022-08-31T14:51:16.161Z,1.20
2022-08-31T14:56:45.421Z,1.00
2022-08-31T15:02:10.183Z,1.10
2022-08-31T15:07:34.784Z,0.95
2022-08-31T15:12:55.796Z,1.20
2022-08-31T15:18:24.462Z,0.93
2022-08-31T15:23:48.418Z,0.97
2022-08-31T15:29:11.979Z,0.70
2022-08-31T15:34:38.325Z,0.93
2022-08-31T15:40:02.262Z,0.90
2022-08-31T15:45:28.322Z,0.77
2022-08-31T15:50:53.766Z,0.95
2022-08-31T15:56:15.175Z,1.00
2022-08-31T16:01:37.713Z,1.00
2022-08-31T16:07:00.914Z,1.05
2022-08-31T16:12:23.410Z,1.17
2022-08-31T16:17:44.635Z,1.27
2022-08-31T16:23:07.741Z,1.25
2022-08-31T16:28:29.054Z,2.20
2022-08-31T16:33:49.959Z,2.28
2022-08-31T16:39:11.755Z,2.63
2022-08-31T16:44:36.635Z,2.70
2022-08-31T16:49:59.022Z,2.33
2022-08-31T16:55:19.820Z,2.58
2022-08-31T17:00:41.674Z,2.20
2022-08-31T17:06:03.591Z,2.30
2022-08-31T17:11:35.745Z,2.65
2022-08-31T17:16:56.619Z,1.90
2022-08-31T17:22:25.719Z,1.70
2022-08-31T17:27:48.081Z,1.50
2022-08-31T17:33:12.739Z,1.60
2022-08-31T17:38:33.295Z,1.70
2022-08-31T17:43:57.230Z,1.45
2022-08-31T17:49:21.307Z,1.50
2022-08-31T17:54:43.523Z,1.60
2022-08-31T18:00:05.665Z,1.40
2022-08-31T18:05:30.713Z,1.10
2022-08-31T18:10:53.315Z,1.40
2022-08-31T18:16:14.526Z,1.17
2022-08-31T18:21:36.653Z,1.17
2022-08-31T18:26:58.848Z,1.13
2022-08-31T18:32:20.125Z,1.00
2022-08-31T18:37:41.533Z,1.10
2022-08-31T18:43:21.257Z,1.00
2022-08-31T18:49:01.073Z,1.08
2022-08-31T18:54:33.536Z,1.08
2022-08-31T18:59:55.410Z,1.40
2022-08-31T19:05:16.473Z,0.90
2022-08-31T19:10:41.875Z,1.00
2022-08-31T19:16:14.801Z,1.13
2022-08-31T19:21:37.752Z,0.98
2022-08-31T19:27:00.343Z,0.90
2022-08-31T19:32:21.664Z,0.95
2022-08-31T19:37:44.305Z,1.00
2022-08-31T19:48:49.922Z,0.70
2022-08-31T19:54:12.556Z,1.42
2022-08-31T19:59:33.773Z,1.02
2022-08-31T20:04:57.423Z,1.00
2022-08-31T20:10:18.282Z,1.30
2022-08-31T20:15:45.032Z,1.60
2022-08-31T20:21:17.795Z,1.10
2022-08-31T20:26:47.183Z,1.10
2022-08-31T20:32:13.072Z,1.50
2022-08-31T20:37:33.659Z,1.30
2022-08-31T20:42:58.120Z,1.38
2022-08-31T20:48:37.326Z,1.02
2022-08-31T20:53:58.481Z,1.08
2022-08-31T20:59:23.471Z,1.08
2022-08-31T21:04:48.061Z,1.48
2022-08-31T21:10:09.587Z,1.20
2022-08-31T21:15:30.198Z,1.13
2022-08-31T21:20:52.095Z,1.77
2022-08-31T21:26:21.815Z,1.10
2022-08-31T21:31:49.830Z,1.30
2022-08-31T21:37:16.691Z,1.10
2022-08-31T21:42:37.467Z,1.27
2022-08-31T21:47:58.274Z,1.20
2022-08-31T21:53:19.131Z,1.20
2022-08-31T21:58:40.286Z,1.20
2022-08-31T22:04:02.091Z,1.20
2022-08-31T22:09:24.593Z,1.45
2022-08-31T22:14:45.255Z,1.40
2022-08-31T22:20:06.313Z,1.30
2022-08-31T22:25:27.952Z,1.10
2022-08-31T22:30:49.618Z,1.67
2022-08-31T22:36:31.673Z,1.23
2022-08-31T22:41:53.654Z,1.25
2022-08-31T22:47:14.248Z,1.00
2022-08-31T22:52:34.786Z,1.40
2022-08-31T22:57:55.539Z,1.20
2022-08-31T23:03:16.632Z,1.27
2022-08-31T23:08:38.446Z,0.95
2022-08-31T23:14:04.080Z,1.05
2022-08-31T23:19:36.991Z,1.35
2022-08-31T23:24:59.823Z,1.20
2022-08-31T23:30:22.564Z,1.20
2022-08-31T23:35:47.262Z,1.10
2022-08-31T23:41:13.690Z,1.13
2022-08-31T23:46:37.337Z,1.00
2022-08-31T23:51:57.822Z,1.88
2022-08-31T23:57:31.325Z,0.90
